createdAt,value
2023-02-03T00:01:56.933Z,6.80
2023-02-03T00:04:23.601Z,6.80
2023-02-03T00:06:51.042Z,6.90
2023-02-03T00:09:18.400Z,6.90
2023-02-03T00:11:45.063Z,6.80
2023-02-03T00:14:11.774Z,6.80
2023-02-03T00:16:38.666Z,6.90
2023-02-03T00:19:05.329Z,6.80
2023-02-03T00:21:32.045Z,6.80
2023-02-03T00:23:58.677Z,6.80
2023-02-03T00:26:26.069Z,6.80
2023-02-03T00:28:52.709Z,6.80
2023-02-03T00:31:22.094Z,6.80
2023-02-03T00:33:54.363Z,6.80
2023-02-03T00:36:20.991Z,6.80
2023-02-03T00:38:49.021Z,6.80
2023-02-03T00:41:16.461Z,6.80
2023-02-03T00:43:43.809Z,6.80
2023-02-03T00:46:10.876Z,6.80
2023-02-03T00:48:37.541Z,6.80
2023-02-03T00:51:05.081Z,6.80
2023-02-03T00:53:31.820Z,6.80
2023-02-03T00:55:58.518Z,6.80
2023-02-03T00:58:25.202Z,6.80
2023-02-03T01:00:51.880Z,6.80
2023-02-03T01:03:18.637Z,6.80
2023-02-03T01:05:45.261Z,6.80
2023-02-03T01:08:11.990Z,6.80
2023-02-03T01:10:39.228Z,6.80
2023-02-03T01:13:05.989Z,6.80
2023-02-03T01:15:32.728Z,6.80
2023-02-03T01:17:59.364Z,6.80
2023-02-03T01:20:26.298Z,6.70
2023-02-03T01:22:53.162Z,6.70
2023-02-03T01:25:19.824Z,6.70
2023-02-03T01:27:46.546Z,6.70
2023-02-03T01:30:13.503Z,6.70
2023-02-03T01:32:40.212Z,6.70
2023-02-03T01:35:07.208Z,6.70
2023-02-03T01:37:33.865Z,6.70
2023-02-03T01:40:00.524Z,6.70
2023-02-03T01:42:28.609Z,6.70
2023-02-03T01:44:55.832Z,6.70
2023-02-03T01:47:39.063Z,6.60
2023-02-03T01:50:11.828Z,6.70
2023-02-03T01:52:43.216Z,6.70
2023-02-03T01:55:14.798Z,6.70
2023-02-03T01:57:51.803Z,6.70
2023-02-03T02:00:18.944Z,6.70
2023-02-03T02:02:47.796Z,6.60
2023-02-03T02:05:23.739Z,6.60
2023-02-03T02:07:51.417Z,6.60
2023-02-03T02:10:18.261Z,6.60
2023-02-03T02:12:45.030Z,6.60
2023-02-03T02:15:11.753Z,6.60
2023-02-03T02:17:56.190Z,6.70
2023-02-03T02:20:26.152Z,6.70
2023-02-03T02:23:11.633Z,6.60
2023-02-03T02:26:26.544Z,6.60
2023-02-03T02:29:31.054Z,6.60
2023-02-03T02:32:02.951Z,6.60
2023-02-03T02:34:54.559Z,6.60
2023-02-03T02:37:56.802Z,6.60
2023-02-03T02:41:03.627Z,6.40
2023-02-03T02:43:35.649Z,6.40
2023-02-03T02:46:09.237Z,6.40
2023-02-03T02:48:49.964Z,6.40
2023-02-03T02:51:17.287Z,6.40
2023-02-03T02:53:59.870Z,6.40
2023-02-03T02:56:28.766Z,6.40
2023-02-03T02:58:57.844Z,6.40
2023-02-03T03:01:24.654Z,6.40
2023-02-03T03:03:52.384Z,6.40
2023-02-03T03:06:28.292Z,6.40
2023-02-03T03:09:05.705Z,6.40
2023-02-03T03:11:35.603Z,6.30
2023-02-03T03:14:04.842Z,6.30
2023-02-03T03:16:35.132Z,6.30
2023-02-03T03:19:09.448Z,6.30
2023-02-03T03:21:41.989Z,6.30
2023-02-03T03:24:12.489Z,6.30
2023-02-03T03:26:46.791Z,6.20
2023-02-03T03:29:30.190Z,6.20
2023-02-03T03:31:57.645Z,6.20
2023-02-03T03:34:24.521Z,6.20
2023-02-03T03:37:03.157Z,6.20
2023-02-03T03:39:55.070Z,6.20
2023-02-03T03:42:50.249Z,6.20
2023-02-03T03:45:39.120Z,6.20
2023-02-03T03:48:33.593Z,6.20
2023-02-03T03:51:09.198Z,6.20
2023-02-03T03:53:39.673Z,6.20
2023-02-03T03:56:09.856Z,6.20
2023-02-03T03:58:39.378Z,6.20
2023-02-03T04:01:07.851Z,6.20
2023-02-03T04:03:41.859Z,6.20
2023-02-03T04:06:08.733Z,6.20
2023-02-03T04:08:35.630Z,6.20
2023-02-03T04:11:02.377Z,6.20
2023-02-03T04:13:29.205Z,6.20
2023-02-03T04:15:55.879Z,6.20
2023-02-03T04:18:22.720Z,6.20
2023-02-03T04:20:49.726Z,6.20
2023-02-03T04:23:16.679Z,6.20
2023-02-03T04:25:43.339Z,6.20
2023-02-03T04:28:10.026Z,6.20
2023-02-03T04:30:36.819Z,6.20
2023-02-03T04:33:03.692Z,6.20
2023-02-03T04:35:30.530Z,6.20
2023-02-03T04:37:57.225Z,6.20
2023-02-03T04:40:24.032Z,6.20
2023-02-03T04:42:50.743Z,6.10
2023-02-03T04:45:17.499Z,6.10
2023-02-03T04:47:44.169Z,6.10
2023-02-03T04:50:10.878Z,6.10
2023-02-03T04:52:38.307Z,6.10
2023-02-03T04:55:05.337Z,6.00
2023-02-03T04:57:32.084Z,6.10
2023-02-03T04:59:58.803Z,6.00
2023-02-03T05:02:25.756Z,6.10
2023-02-03T05:04:52.646Z,6.00
2023-02-03T05:07:19.341Z,6.00
2023-02-03T05:09:46.175Z,6.00
2023-02-03T05:12:12.951Z,6.00
2023-02-03T05:14:39.673Z,6.00
2023-02-03T05:17:06.415Z,6.00
2023-02-03T05:19:33.162Z,6.00
2023-02-03T05:21:59.918Z,6.00
2023-02-03T05:24:26.678Z,6.00
2023-02-03T05:26:53.461Z,6.00
2023-02-03T05:29:20.160Z,6.00
2023-02-03T05:31:46.947Z,6.00
2023-02-03T05:34:13.670Z,6.00
2023-02-03T05:36:40.404Z,6.00
2023-02-03T05:39:07.204Z,6.00
2023-02-03T05:41:52.379Z,6.00
2023-02-03T05:44:20.928Z,6.00
2023-02-03T05:46:48.567Z,6.00
2023-02-03T05:49:15.414Z,5.90
2023-02-03T05:51:42.120Z,5.90
2023-02-03T05:54:09.300Z,5.90
2023-02-03T05:56:36.074Z,6.00
2023-02-03T05:59:03.221Z,6.00
2023-02-03T06:01:30.052Z,6.00
2023-02-03T06:03:56.999Z,5.90
2023-02-03T06:06:23.980Z,5.90
2023-02-03T06:08:56.151Z,5.90
2023-02-03T06:11:26.214Z,5.90
2023-02-03T06:13:52.873Z,5.90
2023-02-03T06:16:19.589Z,5.90
2023-02-03T06:18:46.273Z,5.90
2023-02-03T06:21:13.880Z,5.90
2023-02-03T06:23:40.816Z,5.90
2023-02-03T06:26:07.591Z,6.00
2023-02-03T06:28:34.289Z,5.90
2023-02-03T06:31:01.108Z,5.90
2023-02-03T06:33:28.096Z,5.90
2023-02-03T06:35:54.964Z,6.00
2023-02-03T06:38:21.951Z,5.90
2023-02-03T06:40:48.905Z,6.00
2023-02-03T06:43:15.913Z,5.90
2023-02-03T06:45:46.236Z,5.90
2023-02-03T06:48:13.782Z,5.90
2023-02-03T06:50:40.874Z,5.90
2023-02-03T06:53:07.560Z,5.80
2023-02-03T06:55:34.307Z,5.80
2023-02-03T06:58:01.112Z,5.90
2023-02-03T07:00:28.358Z,5.90
2023-02-03T07:02:57.304Z,5.90
2023-02-03T07:05:24.654Z,5.80
2023-02-03T07:07:51.843Z,5.90
2023-02-03T07:10:18.743Z,5.90
2023-02-03T07:12:45.507Z,5.80
2023-02-03T07:15:13.351Z,5.90
2023-02-03T07:17:40.184Z,5.90
2023-02-03T07:20:07.263Z,5.90
2023-02-03T07:22:34.171Z,5.90
2023-02-03T07:25:00.853Z,5.90
2023-02-03T07:27:28.516Z,5.90
2023-02-03T07:29:55.166Z,5.90
2023-02-03T07:32:21.873Z,5.90
2023-02-03T07:34:48.545Z,5.90
2023-02-03T07:37:15.296Z,5.90
2023-02-03T07:39:42.444Z,5.90
2023-02-03T07:42:09.184Z,5.90
2023-02-03T07:44:35.905Z,5.90
2023-02-03T07:47:02.653Z,5.90
2023-02-03T07:49:29.380Z,6.00
2023-02-03T07:51:56.607Z,6.00
2023-02-03T07:54:23.311Z,6.00
2023-02-03T07:56:50.018Z,6.00
2023-02-03T07:59:17.343Z,6.00
2023-02-03T08:01:44.194Z,6.00
2023-02-03T08:04:15.816Z,6.00
2023-02-03T08:06:45.496Z,6.00
2023-02-03T08:09:12.151Z,6.00
2023-02-03T08:11:38.889Z,6.00
2023-02-03T08:14:05.582Z,6.10
2023-02-03T08:16:32.440Z,6.10
2023-02-03T08:18:59.275Z,6.10
2023-02-03T08:21:26.025Z,6.10
2023-02-03T08:23:52.703Z,6.20
2023-02-03T08:26:19.405Z,6.20
2023-02-03T08:28:50.142Z,6.20
2023-02-03T08:31:16.990Z,6.20
2023-02-03T08:33:43.822Z,6.20
2023-02-03T08:36:11.497Z,6.20
2023-02-03T08:38:38.954Z,6.20
2023-02-03T08:41:09.978Z,6.30
2023-02-03T08:43:37.144Z,6.30
2023-02-03T08:46:08.606Z,6.30
2023-02-03T08:48:36.073Z,6.40
2023-02-03T08:51:02.882Z,6.40
2023-02-03T08:53:29.659Z,6.40
2023-02-03T08:55:56.441Z,6.40
2023-02-03T08:58:23.254Z,6.40
2023-02-03T09:00:53.352Z,6.50
2023-02-03T09:03:20.162Z,6.50
2023-02-03T09:05:47.058Z,6.50
2023-02-03T09:08:13.765Z,6.50
2023-02-03T09:10:40.520Z,6.50
2023-02-03T09:13:07.237Z,6.50
2023-02-03T09:15:35.681Z,6.50
2023-02-03T09:18:02.478Z,6.50
2023-02-03T09:20:29.644Z,6.60
2023-02-03T09:22:59.633Z,6.60
2023-02-03T09:25:26.409Z,6.60
2023-02-03T09:27:53.402Z,6.60
2023-02-03T09:30:20.348Z,6.60
2023-02-03T09:32:54.071Z,6.60
2023-02-03T09:35:21.276Z,6.70
2023-02-03T09:37:48.910Z,6.70
2023-02-03T09:40:27.111Z,6.70
2023-02-03T09:43:13.815Z,6.70
2023-02-03T09:45:40.624Z,6.70
2023-02-03T09:48:16.599Z,6.80
2023-02-03T09:50:45.197Z,6.80
2023-02-03T09:53:39.517Z,6.80
2023-02-03T09:56:06.265Z,6.90
2023-02-03T09:58:34.641Z,7.00
2023-02-03T10:01:09.445Z,7.00
2023-02-03T10:04:04.659Z,7.10
2023-02-03T10:06:42.482Z,7.10
2023-02-03T10:09:11.975Z,7.20
2023-02-03T10:12:26.719Z,7.20
2023-02-03T10:15:05.447Z,7.20
2023-02-03T10:17:47.239Z,7.20
2023-02-03T10:20:27.094Z,7.20
2023-02-03T10:22:59.860Z,7.20
2023-02-03T10:25:36.132Z,7.30
2023-02-03T10:28:10.117Z,7.40
2023-02-03T10:30:45.340Z,7.40
2023-02-03T10:33:16.427Z,7.50
2023-02-03T10:35:50.497Z,7.50
2023-02-03T10:39:06.658Z,7.50
2023-02-03T10:41:33.763Z,7.70
2023-02-03T10:44:05.497Z,7.80
2023-02-03T10:46:38.086Z,7.80
2023-02-03T10:49:05.138Z,7.90
2023-02-03T10:51:36.965Z,7.90
2023-02-03T10:54:03.932Z,8.00
2023-02-03T10:56:36.453Z,8.00
2023-02-03T10:59:03.857Z,8.00
2023-02-03T11:01:46.968Z,8.00
2023-02-03T11:04:33.764Z,8.00
2023-02-03T11:07:06.908Z,8.00
2023-02-03T11:09:39.533Z,8.00
2023-02-03T11:12:18.413Z,8.00
2023-02-03T11:14:47.404Z,8.10
2023-02-03T11:17:22.898Z,8.10
2023-02-03T11:19:51.966Z,8.10
2023-02-03T11:22:32.615Z,8.10
2023-02-03T11:25:01.357Z,8.10
2023-02-03T11:27:32.018Z,8.20
2023-02-03T11:30:24.618Z,8.20
2023-02-03T11:32:52.668Z,8.20
2023-02-03T11:35:27.508Z,8.20
2023-02-03T11:37:57.150Z,8.20
2023-02-03T11:40:31.585Z,8.20
2023-02-03T11:42:58.238Z,8.20
2023-02-03T11:45:29.430Z,8.20
2023-02-03T11:48:11.126Z,8.30
2023-02-03T11:50:40.811Z,8.20
2023-02-03T11:53:24.058Z,8.20
2023-02-03T11:56:30.761Z,8.20
2023-02-03T11:59:36.795Z,8.20
2023-02-03T12:02:34.530Z,8.20
2023-02-03T12:05:40.143Z,8.20
2023-02-03T12:08:29.185Z,8.30
2023-02-03T12:11:11.475Z,8.30
2023-02-03T12:14:03.293Z,8.40
2023-02-03T12:17:12.180Z,8.40
2023-02-03T12:19:56.376Z,8.50
2023-02-03T12:23:09.909Z,8.60
2023-02-03T12:26:10.669Z,8.60
2023-02-03T12:28:53.159Z,8.70
2023-02-03T12:31:49.099Z,8.70
2023-02-03T12:34:19.280Z,8.70
2023-02-03T12:36:53.463Z,8.70
2023-02-03T12:39:44.623Z,8.80
2023-02-03T12:42:30.030Z,8.80
2023-02-03T12:45:09.951Z,8.80
2023-02-03T12:47:54.407Z,8.80
2023-02-03T12:50:32.374Z,8.80
2023-02-03T12:53:07.308Z,8.80
2023-02-03T12:56:01.005Z,8.80
2023-02-03T12:58:32.445Z,8.80
2023-02-03T13:01:06.204Z,8.80
2023-02-03T13:03:41.536Z,8.80
2023-02-03T13:06:16.551Z,8.90
2023-02-03T13:08:56.189Z,8.90
2023-02-03T13:11:51.643Z,8.90
2023-02-03T13:14:38.441Z,8.90
2023-02-03T13:17:22.156Z,9.00
2023-02-03T13:20:14.524Z,8.90
2023-02-03T13:22:41.221Z,8.90
2023-02-03T13:25:25.951Z,8.90
2023-02-03T13:28:04.539Z,8.90
2023-02-03T13:31:04.226Z,9.00
2023-02-03T13:33:47.203Z,9.00
2023-02-03T13:36:41.643Z,9.00
2023-02-03T13:39:16.765Z,9.00
2023-02-03T13:41:50.322Z,9.00
2023-02-03T13:44:21.879Z,9.00
2023-02-03T13:46:51.671Z,8.90
2023-02-03T13:49:33.540Z,8.90
2023-02-03T13:52:00.959Z,8.90
2023-02-03T13:54:43.408Z,8.90
2023-02-03T13:57:22.938Z,8.90
2023-02-03T13:59:50.488Z,8.90
2023-02-03T14:02:20.342Z,8.90
2023-02-03T14:04:47.085Z,8.90
2023-02-03T14:07:36.790Z,8.90
2023-02-03T14:10:12.683Z,8.80
2023-02-03T14:13:00.192Z,8.80
2023-02-03T14:15:31.191Z,8.80
2023-02-03T14:18:01.621Z,8.80
2023-02-03T14:20:28.371Z,8.80
2023-02-03T14:23:07.240Z,8.80
2023-02-03T14:25:41.161Z,8.80
2023-02-03T14:28:18.563Z,8.80
2023-02-03T14:31:05.336Z,8.80
2023-02-03T14:33:59.654Z,8.80
2023-02-03T14:36:35.760Z,8.80
2023-02-03T14:39:25.414Z,8.80
2023-02-03T14:42:13.428Z,8.80
2023-02-03T14:45:22.776Z,8.80
2023-02-03T14:48:07.829Z,8.80
2023-02-03T14:50:45.585Z,8.80
2023-02-03T14:53:56.342Z,8.80
2023-02-03T14:57:02.657Z,8.80
2023-02-03T14:59:45.162Z,8.80
2023-02-03T15:02:22.556Z,8.80
2023-02-03T15:04:50.839Z,8.90
2023-02-03T15:07:49.498Z,8.80
2023-02-03T15:10:20.800Z,8.80
2023-02-03T15:12:52.786Z,8.80
2023-02-03T15:15:23.333Z,8.80
2023-02-03T15:17:53.431Z,8.80
2023-02-03T15:20:32.209Z,8.80
2023-02-03T15:22:58.951Z,8.80
2023-02-03T15:25:29.128Z,8.80
2023-02-03T15:28:13.988Z,8.80
2023-02-03T15:30:41.495Z,8.80
2023-02-03T15:33:15.264Z,8.80
2023-02-03T15:35:46.129Z,8.80
2023-02-03T15:38:23.945Z,8.80
2023-02-03T15:40:57.700Z,8.80
2023-02-03T15:43:24.379Z,8.80
2023-02-03T15:46:01.493Z,8.80
2023-02-03T15:48:44.589Z,8.80
2023-02-03T15:51:46.891Z,8.80
2023-02-03T15:54:24.717Z,8.80
2023-02-03T15:57:05.631Z,8.70
2023-02-03T15:59:35.939Z,8.80
2023-02-03T16:02:14.285Z,8.80
2023-02-03T16:04:41.214Z,8.70
2023-02-03T16:07:27.322Z,8.70
2023-02-03T16:10:00.790Z,8.70
2023-02-03T16:12:29.887Z,8.70
2023-02-03T16:14:58.495Z,8.70
2023-02-03T16:17:33.053Z,8.70
2023-02-03T16:20:11.839Z,8.70
2023-02-03T16:22:44.323Z,8.70
2023-02-03T16:25:34.440Z,8.70
2023-02-03T16:28:20.528Z,8.70
2023-02-03T16:31:32.212Z,8.70
2023-02-03T16:34:20.103Z,8.70
2023-02-03T16:37:06.087Z,8.70
2023-02-03T16:39:51.653Z,8.70
2023-02-03T16:42:39.132Z,8.70
2023-02-03T16:45:48.009Z,8.70
2023-02-03T16:48:33.327Z,8.70
2023-02-03T16:51:06.755Z,8.70
2023-02-03T16:53:33.917Z,8.70
2023-02-03T16:56:04.931Z,8.70
2023-02-03T16:58:32.164Z,8.70
2023-02-03T17:01:02.152Z,8.70
2023-02-03T17:03:29.767Z,8.70
2023-02-03T17:05:57.545Z,8.70
2023-02-03T17:08:26.412Z,8.70
2023-02-03T17:10:53.194Z,8.70
2023-02-03T17:13:22.699Z,8.70
2023-02-03T17:15:52.814Z,8.70
2023-02-03T17:18:20.394Z,8.70
2023-02-03T17:20:47.378Z,8.70
2023-02-03T17:23:16.488Z,8.70
2023-02-03T17:25:49.207Z,8.70
2023-02-03T17:28:16.422Z,8.70
2023-02-03T17:30:43.208Z,8.70
2023-02-03T17:33:13.557Z,8.70
2023-02-03T17:35:41.695Z,8.70
2023-02-03T17:38:09.612Z,8.70
2023-02-03T17:54:27.165Z,8.60
2023-02-03T17:56:53.918Z,8.50
2023-02-03T17:59:20.572Z,8.50
2023-02-03T18:01:47.410Z,8.50
2023-02-03T18:04:14.236Z,8.50
2023-02-03T18:06:40.999Z,8.50
2023-02-03T18:09:10.187Z,8.50
2023-02-03T18:11:37.643Z,8.50
2023-02-03T18:14:05.580Z,8.50
2023-02-03T18:16:35.791Z,8.50
2023-02-03T18:19:05.632Z,8.50
2023-02-03T18:21:32.769Z,8.50
2023-02-03T18:24:01.611Z,8.50
2023-02-03T18:26:32.899Z,8.40
2023-02-03T18:28:59.854Z,8.40
2023-02-03T18:31:27.156Z,8.40
2023-02-03T18:33:53.851Z,8.50
2023-02-03T18:36:21.351Z,8.50
2023-02-03T18:38:48.470Z,8.50
2023-02-03T18:41:20.455Z,8.40
2023-02-03T18:43:49.211Z,8.50
2023-02-03T18:46:26.855Z,8.40
2023-02-03T18:48:53.996Z,8.40
2023-02-03T18:51:21.628Z,8.40
2023-02-03T18:53:49.829Z,8.40
2023-02-03T18:56:22.309Z,8.40
2023-02-03T18:58:49.452Z,8.40
2023-02-03T19:01:27.821Z,8.40
2023-02-03T19:03:56.138Z,8.40
2023-02-03T19:06:24.310Z,8.50
2023-02-03T19:08:52.034Z,8.50
2023-02-03T19:11:19.429Z,8.40
2023-02-03T19:13:46.196Z,8.50
2023-02-03T19:16:16.740Z,8.40
2023-02-03T19:18:45.066Z,8.40
2023-02-03T19:21:12.931Z,8.40
2023-02-03T19:23:41.071Z,8.40
2023-02-03T19:26:09.764Z,8.40
2023-02-03T19:28:36.802Z,8.40
2023-02-03T19:31:08.970Z,8.40
2023-02-03T19:33:37.050Z,8.40
2023-02-03T19:36:05.500Z,8.40
2023-02-03T19:38:32.307Z,8.40
2023-02-03T19:40:59.150Z,8.40
2023-02-03T19:43:25.819Z,8.40
2023-02-03T19:45:52.685Z,8.40
2023-02-03T19:48:19.878Z,8.40
2023-02-03T19:50:47.867Z,8.40
2023-02-03T19:53:16.254Z,8.40
2023-02-03T19:55:47.411Z,8.40
2023-02-03T19:58:14.498Z,8.40
2023-02-03T20:00:41.919Z,8.30
2023-02-03T20:03:09.058Z,8.30
2023-02-03T20:05:36.539Z,8.30
2023-02-03T20:08:04.314Z,8.30
2023-02-03T20:10:32.655Z,8.20
2023-02-03T20:13:00.990Z,8.20
2023-02-03T20:15:28.068Z,8.30
2023-02-03T20:17:54.855Z,8.20
2023-02-03T20:20:22.013Z,8.20
2023-02-03T20:22:49.331Z,8.20
2023-02-03T20:25:16.436Z,8.20
2023-02-03T20:27:43.194Z,8.20
2023-02-03T20:30:11.011Z,8.20
2023-02-03T20:32:38.157Z,8.10
2023-02-03T20:35:06.212Z,8.10
2023-02-03T20:37:33.441Z,8.20
2023-02-03T20:40:00.128Z,8.10
2023-02-03T20:42:26.936Z,8.10
2023-02-03T20:44:53.672Z,8.20
2023-02-03T20:47:22.287Z,8.20
2023-02-03T20:49:49.684Z,8.20
2023-02-03T20:52:18.237Z,8.20
2023-02-03T20:54:45.311Z,8.20
2023-02-03T20:57:17.975Z,8.10
2023-02-03T20:59:46.249Z,8.10
2023-02-03T21:02:31.116Z,8.10
2023-02-03T21:04:58.659Z,8.10
2023-02-03T21:07:30.812Z,8.10
2023-02-03T21:09:59.900Z,8.10
2023-02-03T21:12:28.527Z,8.00
2023-02-03T21:14:55.508Z,8.10
2023-02-03T21:17:27.276Z,8.10
2023-02-03T21:19:55.009Z,8.00
2023-02-03T21:22:26.831Z,8.00
2023-02-03T21:25:00.330Z,8.00
2023-02-03T21:27:31.344Z,8.00
2023-02-03T21:30:00.143Z,8.00
2023-02-03T21:32:37.600Z,8.00
2023-02-03T21:35:37.374Z,8.00
2023-02-03T21:38:29.049Z,8.00
2023-02-03T21:40:55.863Z,8.00
2023-02-03T21:43:27.199Z,8.00
2023-02-03T21:45:53.943Z,8.00
2023-02-03T21:48:26.850Z,8.00
2023-02-03T21:50:55.019Z,8.00
2023-02-03T21:53:32.936Z,8.00
2023-02-03T21:56:16.998Z,8.00
2023-02-03T21:58:47.302Z,7.90
2023-02-03T22:01:18.253Z,7.90
2023-02-03T22:03:52.927Z,7.90
2023-02-03T22:06:22.718Z,7.90
2023-02-03T22:08:52.084Z,7.90
2023-02-03T22:11:20.994Z,7.80
2023-02-03T22:13:48.131Z,7.80
2023-02-03T22:16:17.166Z,7.80
2023-02-03T22:18:48.020Z,7.80
2023-02-03T22:21:15.402Z,7.80
2023-02-03T22:23:42.692Z,7.80
2023-02-03T22:26:10.472Z,7.70
2023-02-03T22:28:38.056Z,7.70
2023-02-03T22:31:05.262Z,7.70
2023-02-03T22:33:32.300Z,7.70
2023-02-03T22:35:59.236Z,7.70
2023-02-03T22:38:26.429Z,7.70
2023-02-03T22:40:53.734Z,7.70
2023-02-03T22:43:20.656Z,7.60
2023-02-03T22:45:47.562Z,7.60
2023-02-03T22:48:14.245Z,7.60
2023-02-03T22:50:41.114Z,7.60
2023-02-03T22:53:09.328Z,7.60
2023-02-03T22:55:36.905Z,7.60
2023-02-03T22:58:04.202Z,7.60
2023-02-03T23:00:31.784Z,7.60
2023-02-03T23:02:59.192Z,7.50
2023-02-03T23:05:26.743Z,7.50
2023-02-03T23:07:53.634Z,7.50
2023-02-03T23:10:24.086Z,7.50
2023-02-03T23:12:50.913Z,7.40
2023-02-03T23:15:18.317Z,7.40
2023-02-03T23:17:45.876Z,7.40
2023-02-03T23:20:14.564Z,7.40
2023-02-03T23:22:41.843Z,7.30
2023-02-03T23:25:09.095Z,7.30
2023-02-03T23:27:35.964Z,7.30
2023-02-03T23:30:04.037Z,7.30
2023-02-03T23:32:30.865Z,7.30
2023-02-03T23:35:16.155Z,7.20
2023-02-03T23:37:42.855Z,7.30
2023-02-03T23:40:10.317Z,7.20
2023-02-03T23:42:37.112Z,7.20
2023-02-03T23:45:08.059Z,7.20
2023-02-03T23:47:35.276Z,7.20
2023-02-03T23:50:02.004Z,7.10
2023-02-03T23:52:35.593Z,7.10
2023-02-03T23:55:11.811Z,7.10
2023-02-03T23:57:39.166Z,7.20
